createdAt,value
2023-05-14T00:01:30.902Z,6.40
2023-05-14T00:03:59.238Z,5.37
2023-05-14T00:06:27.452Z,10.80
2023-05-14T00:08:55.684Z,6.87
2023-05-14T00:11:24.139Z,4.90
2023-05-14T00:13:54.069Z,3.70
2023-05-14T00:16:22.356Z,10.17
2023-05-14T00:18:56.032Z,5.13
2023-05-14T00:21:24.849Z,5.33
2023-05-14T00:23:53.516Z,7.13
2023-05-14T00:29:08.681Z,5.53
2023-05-14T00:31:37.162Z,4.20
2023-05-14T00:34:05.393Z,5.37
2023-05-14T00:36:33.635Z,5.90
2023-05-14T00:39:02.025Z,4.20
2023-05-14T00:41:30.417Z,4.83
2023-05-14T00:43:58.492Z,4.57
2023-05-14T00:46:29.833Z,4.87
2023-05-14T00:48:58.801Z,6.60
2023-05-14T00:51:27.336Z,4.77
2023-05-14T00:53:59.141Z,3.63
2023-05-14T00:56:29.323Z,7.20
2023-05-14T00:58:57.517Z,4.83
2023-05-14T01:01:28.663Z,4.50
2023-05-14T01:03:59.521Z,7.00
2023-05-14T01:06:38.088Z,6.13
2023-05-14T01:09:15.556Z,5.43
2023-05-14T01:11:50.214Z,7.97
2023-05-14T01:14:24.291Z,5.10
2023-05-14T01:16:58.374Z,7.17
2023-05-14T01:19:38.789Z,8.87
2023-05-14T01:22:09.419Z,7.60
2023-05-14T01:24:41.201Z,7.33
2023-05-14T01:27:17.572Z,4.60
2023-05-14T01:29:54.995Z,11.03
2023-05-14T01:32:25.849Z,9.37
2023-05-14T01:34:57.039Z,6.03
2023-05-14T01:37:28.564Z,5.67
2023-05-14T01:39:58.389Z,6.73
2023-05-14T01:42:27.460Z,4.73
2023-05-14T01:44:56.227Z,5.90
2023-05-14T01:47:24.837Z,7.60
2023-05-14T01:49:54.045Z,9.30
2023-05-14T01:52:22.434Z,6.60
2023-05-14T01:54:53.287Z,5.77
2023-05-14T01:57:21.800Z,7.33
2023-05-14T01:59:50.294Z,7.10
2023-05-14T02:02:19.112Z,4.27
2023-05-14T02:04:47.361Z,6.33
2023-05-14T02:07:15.825Z,10.77
2023-05-14T02:09:45.583Z,6.63
2023-05-14T02:12:15.499Z,5.93
2023-05-14T02:14:43.563Z,5.90
2023-05-14T02:17:11.794Z,11.93
2023-05-14T02:19:40.344Z,8.60
2023-05-14T02:22:09.108Z,8.30
2023-05-14T02:24:37.510Z,9.73
2023-05-14T02:27:06.399Z,10.13
2023-05-14T02:29:37.212Z,7.83
2023-05-14T02:32:06.380Z,9.57
2023-05-14T02:34:36.198Z,7.77
2023-05-14T02:37:04.492Z,6.83
2023-05-14T02:39:32.629Z,6.00
2023-05-14T02:42:01.213Z,6.43
2023-05-14T02:44:32.172Z,7.20
2023-05-14T02:47:01.746Z,10.77
2023-05-14T02:49:30.145Z,20.77
2023-05-14T02:51:58.410Z,10.30
2023-05-14T02:54:26.522Z,8.43
2023-05-14T02:56:54.751Z,6.23
2023-05-14T02:59:24.489Z,7.23
2023-05-14T03:01:53.557Z,10.70
2023-05-14T03:04:23.751Z,6.33
2023-05-14T03:06:51.895Z,14.33
2023-05-14T03:09:20.050Z,6.63
2023-05-14T03:11:48.302Z,5.97
2023-05-14T03:14:16.562Z,9.87
2023-05-14T03:16:44.719Z,7.67
2023-05-14T03:19:13.576Z,11.20
2023-05-14T03:21:44.588Z,6.23
2023-05-14T03:24:12.625Z,11.77
2023-05-14T03:26:41.262Z,10.73
2023-05-14T03:29:11.254Z,5.93
2023-05-14T03:31:39.534Z,8.47
2023-05-14T03:34:07.684Z,6.80
2023-05-14T03:36:36.585Z,9.53
2023-05-14T03:39:07.204Z,7.97
2023-05-14T03:41:36.251Z,8.13
2023-05-14T03:44:06.532Z,9.33
2023-05-14T03:46:34.647Z,6.67
2023-05-14T03:49:02.880Z,6.10
2023-05-14T03:51:31.908Z,6.57
2023-05-14T03:54:00.133Z,6.80
2023-05-14T03:56:29.534Z,8.57
2023-05-14T03:58:58.508Z,5.03
2023-05-14T04:01:26.953Z,5.30
2023-05-14T04:03:55.565Z,7.83
2023-05-14T04:06:23.750Z,9.80
2023-05-14T04:08:52.063Z,5.93
2023-05-14T04:11:20.214Z,5.37
2023-05-14T04:13:49.714Z,5.20
2023-05-14T04:16:17.997Z,9.97
2023-05-14T04:18:46.420Z,6.70
2023-05-14T04:21:16.058Z,6.43
2023-05-14T04:23:44.175Z,8.73
2023-05-14T04:26:12.450Z,4.60
2023-05-14T04:28:40.670Z,9.63
2023-05-14T04:31:10.258Z,6.70
2023-05-14T04:33:38.494Z,16.37
2023-05-14T04:36:08.448Z,8.47
2023-05-14T04:38:36.912Z,8.77
2023-05-14T04:41:06.176Z,6.43
2023-05-14T04:43:34.383Z,7.50
2023-05-14T04:46:03.582Z,7.60
2023-05-14T04:48:33.697Z,7.77
2023-05-14T04:51:02.626Z,7.43
2023-05-14T04:53:31.977Z,8.20
2023-05-14T04:56:00.975Z,13.00
2023-05-14T04:58:33.812Z,11.80
2023-05-14T05:01:05.240Z,10.17
2023-05-14T05:03:35.568Z,7.80
2023-05-14T05:06:05.071Z,10.00
2023-05-14T05:08:33.381Z,11.63
2023-05-14T05:11:01.882Z,9.57
2023-05-14T05:13:32.821Z,11.40
2023-05-14T05:16:01.141Z,15.30
2023-05-14T05:18:29.935Z,9.65
2023-05-14T05:21:00.508Z,6.55
2023-05-14T05:23:29.425Z,6.57
2023-05-14T05:25:57.925Z,7.47
2023-05-14T05:28:26.325Z,7.33
2023-05-14T05:30:54.746Z,13.82
2023-05-14T05:33:23.099Z,8.00
2023-05-14T05:35:52.799Z,11.67
2023-05-14T05:38:22.631Z,16.83
2023-05-14T05:40:51.032Z,11.20
2023-05-14T05:43:20.182Z,11.13
2023-05-14T05:45:48.896Z,13.27
2023-05-14T05:48:17.176Z,6.80
2023-05-14T05:50:47.603Z,10.03
2023-05-14T05:53:16.983Z,9.80
2023-05-14T05:55:46.583Z,6.80
2023-05-14T05:58:17.440Z,17.07
2023-05-14T06:00:45.913Z,9.83
2023-05-14T06:03:15.078Z,18.17
2023-05-14T06:05:43.756Z,15.13
2023-05-14T06:08:12.790Z,11.27
2023-05-14T06:10:41.048Z,12.00
2023-05-14T06:13:13.885Z,7.80
2023-05-14T06:15:42.148Z,9.03
2023-05-14T06:18:10.435Z,8.57
2023-05-14T06:20:40.293Z,14.13
2023-05-14T06:23:09.393Z,8.73
2023-05-14T06:25:38.316Z,7.97
2023-05-14T06:28:06.793Z,16.03
2023-05-14T06:30:36.757Z,11.67
2023-05-14T06:33:05.659Z,8.90
2023-05-14T06:35:35.199Z,8.93
2023-05-14T06:38:03.799Z,9.00
2023-05-14T06:40:32.206Z,9.97
2023-05-14T06:43:02.324Z,8.97
2023-05-14T06:45:33.253Z,12.33
2023-05-14T06:48:03.158Z,9.67
2023-05-14T06:50:32.134Z,9.97
2023-05-14T06:53:06.192Z,12.83
2023-05-14T06:55:34.266Z,9.87
2023-05-14T06:58:02.548Z,10.63
2023-05-14T07:00:31.623Z,10.17
2023-05-14T07:02:59.967Z,11.43
2023-05-14T07:05:29.813Z,9.03
2023-05-14T07:07:58.270Z,12.77
2023-05-14T07:10:26.605Z,8.47
2023-05-14T07:12:54.790Z,15.20
2023-05-14T07:15:22.747Z,9.10
2023-05-14T07:17:50.873Z,8.93
2023-05-14T07:20:18.944Z,11.50
2023-05-14T07:22:48.930Z,8.70
2023-05-14T07:25:17.457Z,7.43
2023-05-14T07:27:45.518Z,8.67
2023-05-14T07:30:14.091Z,8.27
2023-05-14T07:32:43.316Z,15.10
2023-05-14T07:35:12.777Z,11.30
2023-05-14T07:37:41.196Z,9.87
2023-05-14T07:40:12.127Z,9.17
2023-05-14T07:42:43.315Z,11.07
2023-05-14T07:45:12.369Z,22.97
2023-05-14T07:47:40.902Z,17.43
2023-05-14T07:50:10.017Z,25.93
2023-05-14T07:52:38.209Z,14.70
2023-05-14T07:55:07.405Z,15.07
2023-05-14T07:57:37.666Z,19.97
2023-05-14T08:00:08.144Z,23.30
2023-05-14T08:02:36.558Z,13.97
2023-05-14T08:05:05.288Z,11.83
2023-05-14T08:07:34.534Z,17.57
2023-05-14T08:10:02.707Z,15.47
2023-05-14T08:12:30.878Z,12.47
2023-05-14T08:15:00.334Z,15.23
2023-05-14T08:17:28.769Z,12.50
2023-05-14T08:19:57.915Z,11.67
2023-05-14T08:22:26.768Z,10.93
2023-05-14T08:24:57.897Z,18.00
2023-05-14T08:27:29.336Z,17.13
2023-05-14T08:29:57.732Z,17.17
2023-05-14T08:32:27.472Z,13.87
2023-05-14T08:34:55.699Z,17.70
2023-05-14T08:37:23.773Z,12.70
2023-05-14T08:39:52.490Z,13.27
2023-05-14T08:42:23.137Z,15.53
2023-05-14T08:44:59.112Z,13.53
2023-05-14T08:47:30.380Z,15.00
2023-05-14T08:50:04.592Z,13.53
2023-05-14T08:52:38.435Z,16.53
2023-05-14T08:55:11.359Z,12.13
2023-05-14T08:57:40.250Z,13.37
2023-05-14T09:00:11.783Z,12.93
2023-05-14T09:02:45.738Z,14.10
2023-05-14T09:05:14.575Z,26.20
2023-05-14T09:07:43.141Z,44.57
2023-05-14T09:10:12.341Z,28.30
2023-05-14T09:12:40.805Z,28.07
2023-05-14T09:15:09.797Z,27.03
2023-05-14T09:17:38.135Z,24.80
2023-05-14T09:20:10.276Z,24.67
2023-05-14T09:22:40.532Z,17.97
2023-05-14T09:25:12.557Z,17.23
2023-05-14T09:27:40.993Z,15.07
2023-05-14T09:30:12.083Z,15.07
2023-05-14T09:32:44.219Z,15.53
2023-05-14T09:35:19.439Z,16.27
2023-05-14T09:37:49.140Z,18.67
2023-05-14T09:40:19.900Z,16.17
2023-05-14T09:42:49.388Z,16.87
2023-05-14T09:45:18.109Z,15.43
2023-05-14T09:47:46.927Z,16.97
2023-05-14T09:50:17.185Z,13.93
2023-05-14T09:52:46.056Z,14.83
2023-05-14T09:55:15.656Z,15.83
2023-05-14T09:57:44.102Z,15.70
2023-05-14T10:00:13.677Z,12.27
2023-05-14T10:02:44.335Z,12.60
2023-05-14T10:05:16.077Z,18.20
2023-05-14T10:07:50.229Z,18.13
2023-05-14T10:10:21.480Z,17.53
2023-05-14T10:12:54.202Z,18.43
2023-05-14T10:15:28.400Z,17.33
2023-05-14T10:18:00.186Z,16.10
2023-05-14T10:20:30.185Z,13.87
2023-05-14T10:23:00.773Z,15.33
2023-05-14T10:25:31.337Z,15.90
2023-05-14T10:28:04.883Z,14.50
2023-05-14T10:30:33.876Z,15.90
2023-05-14T10:33:10.228Z,18.23
2023-05-14T10:35:59.687Z,19.07
2023-05-14T10:38:30.810Z,20.43
2023-05-14T10:41:04.032Z,24.70
2023-05-14T10:43:38.703Z,19.30
2023-05-14T10:46:08.559Z,19.40
2023-05-14T10:48:38.683Z,19.50
2023-05-14T10:51:10.206Z,17.13
2023-05-14T10:53:41.777Z,19.47
2023-05-14T10:56:15.818Z,19.93
2023-05-14T10:58:46.139Z,17.20
2023-05-14T11:01:15.696Z,16.10
2023-05-14T11:03:46.510Z,16.27
2023-05-14T11:06:17.826Z,15.50
2023-05-14T11:08:47.634Z,16.63
2023-05-14T11:11:20.045Z,16.07
2023-05-14T11:13:49.294Z,16.83
2023-05-14T11:16:23.415Z,16.07
2023-05-14T11:19:03.645Z,16.20
2023-05-14T11:21:34.068Z,16.13
2023-05-14T11:24:06.184Z,15.27
2023-05-14T11:26:35.830Z,16.20
2023-05-14T11:29:06.094Z,15.13
2023-05-14T11:31:34.778Z,15.63
2023-05-14T11:34:10.067Z,21.77
2023-05-14T11:36:42.352Z,21.40
2023-05-14T11:39:19.459Z,17.47
2023-05-14T11:41:48.071Z,17.37
2023-05-14T11:44:18.908Z,17.10
2023-05-14T11:46:56.336Z,15.30
2023-05-14T11:49:25.041Z,14.83
2023-05-14T11:51:59.307Z,14.83
2023-05-14T11:54:30.620Z,15.33
2023-05-14T11:57:01.968Z,14.68
2023-05-14T11:59:32.893Z,16.83
2023-05-14T12:02:01.423Z,15.98
2023-05-14T12:04:31.606Z,15.60
2023-05-14T12:07:01.510Z,13.63
2023-05-14T12:09:31.488Z,14.50
2023-05-14T12:12:09.141Z,15.65
2023-05-14T12:14:43.059Z,15.57
2023-05-14T12:17:17.770Z,15.18
2023-05-14T12:19:46.814Z,14.45
2023-05-14T12:22:19.263Z,17.35
2023-05-14T12:24:59.130Z,14.02
2023-05-14T12:27:28.793Z,14.05
2023-05-14T12:30:13.043Z,15.30
2023-05-14T12:32:49.079Z,14.45
2023-05-14T12:35:17.624Z,15.20
2023-05-14T12:37:45.945Z,15.52
2023-05-14T12:40:16.103Z,15.73
2023-05-14T12:42:46.676Z,14.60
2023-05-14T12:45:15.105Z,16.95
2023-05-14T12:47:43.600Z,18.00
2023-05-14T12:50:12.698Z,16.42
2023-05-14T12:52:41.058Z,16.08
2023-05-14T12:55:10.371Z,18.42
2023-05-14T12:57:40.438Z,18.05
2023-05-14T13:00:13.898Z,16.45
2023-05-14T13:02:43.678Z,17.10
2023-05-14T13:05:12.754Z,16.90
2023-05-14T13:07:41.131Z,18.67
2023-05-14T13:10:10.374Z,17.58
2023-05-14T13:12:39.898Z,17.67
2023-05-14T13:15:09.057Z,19.20
2023-05-14T13:17:37.565Z,20.48
2023-05-14T13:20:06.513Z,26.25
2023-05-14T13:22:34.671Z,21.83
2023-05-14T13:25:02.798Z,19.13
2023-05-14T13:27:30.930Z,25.75
2023-05-14T13:30:01.363Z,19.23
2023-05-14T13:32:29.615Z,20.53
2023-05-14T13:34:57.780Z,19.42
2023-05-14T13:37:26.304Z,18.75
2023-05-14T13:39:54.674Z,20.92
2023-05-14T13:42:23.742Z,18.08
2023-05-14T13:44:52.852Z,20.63
2023-05-14T13:47:22.736Z,19.02
2023-05-14T13:49:51.095Z,21.60
2023-05-14T13:52:19.755Z,18.13
2023-05-14T13:54:48.474Z,17.45
2023-05-14T13:57:16.711Z,24.67
2023-05-14T13:59:45.162Z,21.88
2023-05-14T14:02:13.333Z,19.03
2023-05-14T14:04:43.756Z,25.98
2023-05-14T14:07:12.158Z,25.53
2023-05-14T14:09:43.698Z,25.50
2023-05-14T14:12:12.156Z,25.30
2023-05-14T14:14:40.402Z,22.20
2023-05-14T14:17:09.112Z,23.00
2023-05-14T14:19:37.596Z,28.60
2023-05-14T14:22:07.650Z,22.63
2023-05-14T14:24:35.866Z,21.58
2023-05-14T14:27:04.107Z,21.38
2023-05-14T14:29:32.549Z,23.60
2023-05-14T14:32:01.166Z,23.53
2023-05-14T14:34:29.520Z,25.47
2023-05-14T14:36:57.596Z,30.30
2023-05-14T14:39:27.031Z,26.13
2023-05-14T14:41:55.626Z,24.00
2023-05-14T14:44:25.813Z,27.60
2023-05-14T14:46:57.112Z,24.10
2023-05-14T14:49:25.300Z,25.20
2023-05-14T14:51:54.357Z,27.43
2023-05-14T14:54:25.833Z,26.87
2023-05-14T14:56:57.994Z,32.77
2023-05-14T14:59:26.341Z,23.37
2023-05-14T15:01:54.612Z,24.77
2023-05-14T15:04:22.742Z,22.77
2023-05-14T15:06:50.847Z,23.93
2023-05-14T15:09:19.070Z,27.33
2023-05-14T15:11:47.282Z,25.63
2023-05-14T15:14:17.018Z,32.23
2023-05-14T15:16:45.355Z,27.40
2023-05-14T15:19:13.982Z,25.93
2023-05-14T15:21:42.213Z,27.57
2023-05-14T15:24:13.476Z,31.83
2023-05-14T15:26:42.203Z,32.40
2023-05-14T15:29:10.341Z,27.90
2023-05-14T15:31:41.108Z,29.77
2023-05-14T15:34:09.255Z,30.03
2023-05-14T15:36:37.864Z,32.53
2023-05-14T15:39:10.429Z,30.27
2023-05-14T15:41:38.653Z,32.20
2023-05-14T15:44:07.464Z,33.63
2023-05-14T15:46:35.985Z,31.90
2023-05-14T15:49:06.147Z,31.23
2023-05-14T15:51:34.282Z,35.27
2023-05-14T15:54:03.722Z,39.97
2023-05-14T15:56:32.845Z,32.63
2023-05-14T15:59:03.389Z,34.60
2023-05-14T16:01:32.212Z,37.87
2023-05-14T16:04:00.910Z,36.73
2023-05-14T16:06:31.392Z,57.07
2023-05-14T16:09:00.709Z,33.97
2023-05-14T16:11:29.457Z,34.83
2023-05-14T16:13:58.481Z,34.00
2023-05-14T16:16:26.978Z,37.80
2023-05-14T16:18:55.579Z,33.83
2023-05-14T16:21:24.176Z,37.30
2023-05-14T16:23:54.507Z,36.40
2023-05-14T16:26:22.840Z,37.97
2023-05-14T16:28:51.057Z,38.27
2023-05-14T16:31:19.687Z,38.53
2023-05-14T16:33:48.443Z,39.10
2023-05-14T16:36:16.705Z,40.70
2023-05-14T16:39:05.426Z,39.40
2023-05-14T16:41:34.274Z,40.27
2023-05-14T16:44:02.819Z,41.90
2023-05-14T16:46:32.396Z,38.73
2023-05-14T16:49:00.860Z,42.80
2023-05-14T16:51:29.132Z,41.27
2023-05-14T16:53:58.074Z,38.93
2023-05-14T16:56:28.245Z,44.53
2023-05-14T16:58:57.951Z,42.40
2023-05-14T17:01:26.423Z,47.87
2023-05-14T17:03:54.937Z,47.20
2023-05-14T17:06:23.460Z,42.57
2023-05-14T17:08:51.755Z,45.67
2023-05-14T17:11:22.778Z,46.60
2023-05-14T17:13:51.375Z,45.30
2023-05-14T17:16:22.766Z,45.90
2023-05-14T17:18:51.067Z,53.73
2023-05-14T17:21:20.890Z,49.50
2023-05-14T17:23:50.207Z,47.77
2023-05-14T17:26:19.102Z,49.87
2023-05-14T17:28:47.568Z,49.80
2023-05-14T17:31:16.919Z,49.90
2023-05-14T17:33:46.892Z,50.70
2023-05-14T17:36:16.715Z,50.10
2023-05-14T17:38:46.422Z,47.07
2023-05-14T17:41:15.046Z,48.37
2023-05-14T17:43:43.841Z,46.47
2023-05-14T17:46:12.423Z,45.00
2023-05-14T17:48:40.978Z,47.27
2023-05-14T17:51:11.434Z,42.47
2023-05-14T17:53:39.652Z,49.20
2023-05-14T17:56:09.252Z,46.03
2023-05-14T17:58:37.374Z,45.03
2023-05-14T18:01:08.310Z,51.47
2023-05-14T18:03:37.195Z,47.00
2023-05-14T18:06:06.182Z,46.73
2023-05-14T18:08:35.915Z,46.13
2023-05-14T18:11:04.056Z,47.53
2023-05-14T18:13:32.409Z,49.70
2023-05-14T18:16:02.064Z,55.93
2023-05-14T18:18:30.484Z,51.43
2023-05-14T18:20:58.785Z,53.90
2023-05-14T18:23:29.140Z,54.33
2023-05-14T18:26:00.301Z,55.73
2023-05-14T18:28:29.400Z,54.33
2023-05-14T18:30:57.694Z,60.93
2023-05-14T18:33:26.253Z,58.57
2023-05-14T18:35:54.754Z,65.07
2023-05-14T18:38:23.097Z,61.47
2023-05-14T18:40:51.486Z,67.43
2023-05-14T18:43:21.589Z,66.03
2023-05-14T18:46:00.418Z,64.27
2023-05-14T18:48:29.404Z,65.07
2023-05-14T18:50:57.659Z,71.43
2023-05-14T18:53:27.624Z,61.53
2023-05-14T18:55:56.137Z,62.43
2023-05-14T18:58:25.852Z,65.03
2023-05-14T19:00:54.218Z,62.73
2023-05-14T19:03:23.232Z,53.20
2023-05-14T19:05:51.933Z,44.07
2023-05-14T19:08:22.080Z,52.80
2023-05-14T19:10:51.131Z,43.07
2023-05-14T19:13:19.555Z,37.67
2023-05-14T19:15:49.004Z,38.97
2023-05-14T19:18:17.778Z,30.60
2023-05-14T19:20:47.129Z,29.97
2023-05-14T19:23:15.747Z,24.60
2023-05-14T19:25:43.993Z,28.30
2023-05-14T19:28:12.344Z,25.70
2023-05-14T19:30:40.700Z,23.50
2023-05-14T19:33:10.769Z,23.47
2023-05-14T19:35:39.102Z,21.23
2023-05-14T19:38:07.269Z,18.83
2023-05-14T19:40:35.482Z,25.10
2023-05-14T19:43:04.163Z,21.63
2023-05-14T19:45:32.784Z,21.63
2023-05-14T19:48:01.307Z,21.83
2023-05-14T19:50:32.459Z,19.80
2023-05-14T19:53:01.046Z,20.07
2023-05-14T19:55:29.610Z,19.87
2023-05-14T19:57:57.864Z,23.57
2023-05-14T20:00:27.089Z,17.37
2023-05-14T20:02:59.703Z,20.57
2023-05-14T20:05:30.693Z,21.27
2023-05-14T20:07:58.936Z,22.63
2023-05-14T20:10:27.722Z,18.73
2023-05-14T20:12:56.263Z,22.57
2023-05-14T20:15:25.967Z,18.87
2023-05-14T20:17:54.978Z,19.00
2023-05-14T20:20:24.274Z,17.70
2023-05-14T20:22:54.846Z,17.87
2023-05-14T20:25:23.218Z,18.70
2023-05-14T20:27:52.636Z,17.67
2023-05-14T20:30:21.181Z,16.63
2023-05-14T20:32:49.309Z,17.27
2023-05-14T20:35:18.836Z,16.40
2023-05-14T20:37:47.316Z,17.93
2023-05-14T20:40:17.138Z,16.17
2023-05-14T20:42:45.318Z,17.20
2023-05-14T20:45:13.824Z,18.80
2023-05-14T20:47:42.581Z,16.33
2023-05-14T20:50:10.923Z,16.40
2023-05-14T20:52:39.001Z,16.17
2023-05-14T20:55:13.718Z,14.47
2023-05-14T20:57:43.802Z,16.37
2023-05-14T21:00:13.698Z,14.40
2023-05-14T21:02:43.008Z,16.10
2023-05-14T21:05:13.965Z,15.47
2023-05-14T21:07:42.207Z,15.33
2023-05-14T21:10:11.583Z,17.93
2023-05-14T21:12:39.740Z,18.60
2023-05-14T21:15:11.027Z,15.30
2023-05-14T21:17:39.959Z,15.67
2023-05-14T21:20:09.412Z,17.17
2023-05-14T21:22:37.531Z,16.53
2023-05-14T21:25:06.338Z,17.60
2023-05-14T21:27:34.915Z,16.43
2023-05-14T21:30:03.033Z,17.73
2023-05-14T21:32:32.703Z,15.83
2023-05-14T21:35:00.843Z,16.37
2023-05-14T21:37:29.221Z,16.33
2023-05-14T21:39:57.340Z,18.33
2023-05-14T21:42:25.537Z,17.67
2023-05-14T21:44:53.867Z,18.63
2023-05-14T21:47:22.310Z,18.03
2023-05-14T21:49:51.781Z,17.63
2023-05-14T21:52:19.923Z,17.47
2023-05-14T21:54:47.994Z,22.73
2023-05-14T21:57:17.914Z,19.40
2023-05-14T21:59:46.182Z,18.27
2023-05-14T22:02:14.388Z,19.10
2023-05-14T22:04:42.528Z,21.63
2023-05-14T22:07:12.267Z,20.33
2023-05-14T22:09:40.398Z,18.23
2023-05-14T22:12:09.229Z,19.00
2023-05-14T22:14:38.321Z,18.03
2023-05-14T22:17:06.641Z,18.97
2023-05-14T22:19:34.779Z,19.73
2023-05-14T22:22:03.459Z,21.00
2023-05-14T22:24:33.057Z,19.60
2023-05-14T22:27:01.126Z,19.40
2023-05-14T22:29:29.289Z,18.93
2023-05-14T22:31:57.511Z,19.27
2023-05-14T22:34:25.784Z,19.53
2023-05-14T22:36:53.941Z,20.70
2023-05-14T22:39:22.088Z,20.53
2023-05-14T22:41:55.201Z,24.50
2023-05-14T22:44:23.538Z,23.60
2023-05-14T22:46:51.869Z,22.80
2023-05-14T22:49:20.105Z,23.23
2023-05-14T22:51:48.234Z,23.13
2023-05-14T22:54:16.705Z,22.53
2023-05-14T22:56:45.777Z,22.70
2023-05-14T22:59:15.507Z,25.87
2023-05-14T23:01:43.662Z,24.47
2023-05-14T23:04:11.770Z,25.07
2023-05-14T23:06:40.084Z,27.60
2023-05-14T23:09:08.136Z,24.80
2023-05-14T23:11:36.337Z,25.17
2023-05-14T23:14:05.169Z,24.67
2023-05-14T23:16:35.372Z,26.23
2023-05-14T23:19:03.804Z,28.37
2023-05-14T23:21:32.670Z,25.00
2023-05-14T23:24:01.332Z,26.17
2023-05-14T23:26:29.535Z,27.97
2023-05-14T23:28:57.640Z,24.53
2023-05-14T23:31:25.877Z,25.00
2023-05-14T23:33:55.466Z,24.93
2023-05-14T23:36:23.946Z,29.03
2023-05-14T23:38:52.801Z,25.20
2023-05-14T23:41:21.820Z,28.70
2023-05-14T23:43:50.046Z,26.67
2023-05-14T23:46:18.322Z,25.70
2023-05-14T23:48:46.541Z,28.90
2023-05-14T23:51:16.055Z,24.53
2023-05-14T23:53:44.171Z,26.57
2023-05-14T23:56:13.005Z,27.17
2023-05-14T23:58:41.146Z,25.80
